createdAt,value
2022-10-19T00:00:52.807Z,12.30
2022-10-19T00:03:23.191Z,12.30
2022-10-19T00:05:51.391Z,12.30
2022-10-19T00:08:19.503Z,12.30
2022-10-19T00:10:47.577Z,12.30
2022-10-19T00:13:16.914Z,12.30
2022-10-19T00:15:45.220Z,12.30
2022-10-19T00:18:13.188Z,12.40
2022-10-19T00:20:41.170Z,12.30
2022-10-19T00:23:10.209Z,12.30
2022-10-19T00:25:38.486Z,12.30
2022-10-19T00:28:06.587Z,12.40
2022-10-19T00:30:39.075Z,12.40
2022-10-19T00:33:07.288Z,12.30
2022-10-19T00:35:35.250Z,12.40
2022-10-19T00:38:03.214Z,12.40
2022-10-19T00:40:31.176Z,12.30
2022-10-19T00:42:59.138Z,12.40
2022-10-19T00:45:27.150Z,12.30
2022-10-19T00:47:56.951Z,12.30
2022-10-19T00:50:24.897Z,12.30
2022-10-19T00:52:52.852Z,12.30
2022-10-19T00:55:20.994Z,12.30
2022-10-19T00:57:49.038Z,12.30
2022-10-19T01:00:17.030Z,12.30
2022-10-19T01:02:44.989Z,12.30
2022-10-19T01:05:15.451Z,12.20
2022-10-19T01:07:43.518Z,12.20
2022-10-19T01:10:11.821Z,12.20
2022-10-19T01:12:58.750Z,12.20
2022-10-19T01:15:35.430Z,12.20
2022-10-19T01:18:10.521Z,12.20
2022-10-19T01:21:09.034Z,12.20
2022-10-19T01:24:15.744Z,12.10
2022-10-19T01:27:18.813Z,12.10
2022-10-19T01:30:11.203Z,12.10
2022-10-19T01:33:03.828Z,12.00
2022-10-19T01:35:40.138Z,12.00
2022-10-19T01:38:23.074Z,12.00
2022-10-19T01:40:58.196Z,12.00
2022-10-19T01:43:35.032Z,12.00
2022-10-19T01:46:10.216Z,12.00
2022-10-19T01:48:42.358Z,11.90
2022-10-19T01:51:14.788Z,11.90
2022-10-19T01:53:48.072Z,11.90
2022-10-19T01:56:20.910Z,11.90
2022-10-19T01:58:49.557Z,11.90
2022-10-19T02:01:21.097Z,11.90
2022-10-19T02:03:49.821Z,11.90
2022-10-19T02:06:18.117Z,11.90
2022-10-19T02:08:48.926Z,11.90
2022-10-19T02:11:17.623Z,11.90
2022-10-19T02:13:47.294Z,11.90
2022-10-19T02:16:21.417Z,11.90
2022-10-19T02:18:52.184Z,11.90
2022-10-19T02:21:20.225Z,11.90
2022-10-19T02:23:49.405Z,11.90
2022-10-19T02:26:20.243Z,11.90
2022-10-19T02:28:48.725Z,11.90
2022-10-19T02:31:18.204Z,11.90
2022-10-19T02:33:46.313Z,11.90
2022-10-19T02:36:14.398Z,11.90
2022-10-19T02:38:43.099Z,11.90
2022-10-19T02:41:17.729Z,11.80
2022-10-19T02:43:50.648Z,11.80
2022-10-19T02:46:26.748Z,11.80
2022-10-19T02:48:56.628Z,11.80
2022-10-19T02:51:33.902Z,11.80
2022-10-19T02:54:04.986Z,11.80
2022-10-19T02:56:33.922Z,11.80
2022-10-19T02:59:04.139Z,11.70
2022-10-19T03:01:33.476Z,11.70
2022-10-19T03:04:01.399Z,11.70
2022-10-19T03:06:29.402Z,11.70
2022-10-19T03:08:57.469Z,11.60
2022-10-19T03:11:25.501Z,11.70
2022-10-19T03:13:53.466Z,11.60
2022-10-19T03:16:21.527Z,11.60
2022-10-19T03:18:51.203Z,11.60
2022-10-19T03:21:19.968Z,11.60
2022-10-19T03:23:47.946Z,11.70
2022-10-19T03:26:18.111Z,11.70
2022-10-19T03:28:46.193Z,11.70
2022-10-19T03:31:14.215Z,11.80
2022-10-19T03:33:42.189Z,11.70
2022-10-19T03:36:21.474Z,11.70
2022-10-19T03:38:52.183Z,11.80
2022-10-19T03:41:20.823Z,11.80
2022-10-19T03:43:49.257Z,11.80
2022-10-19T03:46:17.907Z,11.80
2022-10-19T03:48:46.171Z,11.80
2022-10-19T03:51:16.668Z,11.80
2022-10-19T03:53:46.907Z,11.80
2022-10-19T03:56:16.491Z,11.80
2022-10-19T03:58:46.114Z,11.90
2022-10-19T04:01:16.119Z,11.80
2022-10-19T04:03:44.416Z,11.90
2022-10-19T04:06:18.198Z,11.80
2022-10-19T04:08:51.225Z,11.80
2022-10-19T04:11:23.339Z,11.80
2022-10-19T04:13:52.003Z,11.80
2022-10-19T04:16:21.050Z,11.80
2022-10-19T04:18:49.157Z,11.80
2022-10-19T04:21:23.616Z,11.80
2022-10-19T04:23:54.019Z,11.80
2022-10-19T04:26:22.214Z,11.80
2022-10-19T04:28:50.616Z,11.80
2022-10-19T04:31:18.633Z,11.80
2022-10-19T04:36:19.506Z,11.80
2022-10-19T04:38:47.505Z,11.80
2022-10-19T04:41:18.870Z,11.80
2022-10-19T04:43:47.666Z,11.80
2022-10-19T04:46:17.927Z,11.80
2022-10-19T04:48:47.117Z,11.80
2022-10-19T04:51:16.292Z,11.80
2022-10-19T04:53:44.912Z,11.80
2022-10-19T04:56:15.586Z,11.80
2022-10-19T04:58:44.997Z,11.80
2022-10-19T05:01:14.828Z,11.80
2022-10-19T05:03:42.948Z,11.80
2022-10-19T05:06:12.179Z,11.80
2022-10-19T05:08:40.683Z,11.80
2022-10-19T05:11:11.314Z,11.80
2022-10-19T05:13:39.907Z,11.70
2022-10-19T05:16:12.007Z,11.80
2022-10-19T05:18:40.476Z,11.80
2022-10-19T05:21:11.206Z,11.80
2022-10-19T05:23:39.940Z,11.80
2022-10-19T05:26:09.638Z,11.80
2022-10-19T05:28:38.814Z,11.80
2022-10-19T05:31:09.862Z,11.80
2022-10-19T05:33:39.011Z,11.80
2022-10-19T05:36:15.129Z,11.80
2022-10-19T05:38:43.300Z,11.80
2022-10-19T05:41:11.688Z,11.80
2022-10-19T05:43:40.732Z,11.80
2022-10-19T05:46:12.840Z,11.80
2022-10-19T05:48:42.079Z,11.80
2022-10-19T05:51:12.840Z,11.90
2022-10-19T05:53:41.408Z,11.90
2022-10-19T05:56:14.103Z,11.90
2022-10-19T05:58:42.256Z,11.90
2022-10-19T06:01:12.031Z,11.90
2022-10-19T06:03:40.106Z,11.90
2022-10-19T06:06:12.417Z,11.90
2022-10-19T06:08:40.996Z,11.90
2022-10-19T06:11:11.051Z,11.90
2022-10-19T06:13:40.036Z,11.90
2022-10-19T06:16:10.282Z,11.90
2022-10-19T06:18:40.808Z,11.90
2022-10-19T06:21:12.186Z,11.90
2022-10-19T06:26:15.443Z,11.90
2022-10-19T06:28:44.823Z,11.90
2022-10-19T06:31:14.736Z,11.80
2022-10-19T06:33:48.520Z,11.90
2022-10-19T06:36:20.115Z,11.90
2022-10-19T06:38:48.575Z,11.90
2022-10-19T06:41:16.611Z,11.90
2022-10-19T06:43:44.683Z,11.90
2022-10-19T06:46:17.574Z,11.90
2022-10-19T06:48:51.035Z,11.90
2022-10-19T06:51:19.523Z,11.90
2022-10-19T06:53:48.938Z,11.90
2022-10-19T06:56:19.693Z,11.90
2022-10-19T06:58:59.237Z,11.90
2022-10-19T07:01:30.436Z,11.90
2022-10-19T07:04:03.413Z,11.90
2022-10-19T07:06:32.727Z,11.90
2022-10-19T07:09:06.397Z,11.90
2022-10-19T07:11:45.542Z,11.90
2022-10-19T07:14:15.965Z,11.90
2022-10-19T07:16:45.355Z,11.90
2022-10-19T07:19:16.185Z,11.90
2022-10-19T07:21:44.879Z,11.90
2022-10-19T07:24:13.063Z,11.90
2022-10-19T07:26:41.500Z,11.90
2022-10-19T07:29:09.539Z,11.90
2022-10-19T07:31:37.476Z,11.90
2022-10-19T07:34:06.403Z,11.90
2022-10-19T07:36:36.972Z,11.90
2022-10-19T07:39:06.341Z,12.00
2022-10-19T07:41:35.287Z,12.00
2022-10-19T07:44:03.713Z,12.00
2022-10-19T07:46:33.866Z,12.00
2022-10-19T07:49:02.833Z,12.00
2022-10-19T07:51:31.086Z,12.00
2022-10-19T07:54:00.836Z,12.00
2022-10-19T07:56:29.834Z,12.00
2022-10-19T07:58:59.481Z,12.00
2022-10-19T08:01:29.871Z,12.00
2022-10-19T08:06:48.016Z,12.00
2022-10-19T08:09:40.051Z,12.00
2022-10-19T08:12:06.261Z,12.00
2022-10-19T08:14:34.364Z,12.00
2022-10-19T08:17:02.641Z,12.00
2022-10-19T08:19:30.884Z,12.00
2022-10-19T08:22:00.274Z,12.00
2022-10-19T08:24:29.676Z,12.00
2022-10-19T08:26:58.611Z,12.00
2022-10-19T08:29:29.128Z,12.00
2022-10-19T08:31:59.803Z,12.00
2022-10-19T08:34:27.802Z,12.00
2022-10-19T08:36:55.855Z,12.00
2022-10-19T08:39:23.807Z,12.10
2022-10-19T08:42:00.525Z,12.10
2022-10-19T08:44:47.865Z,12.10
2022-10-19T08:47:25.802Z,12.20
2022-10-19T08:49:53.957Z,12.20
2022-10-19T08:52:29.591Z,12.20
2022-10-19T08:55:02.771Z,12.30
2022-10-19T08:57:42.082Z,12.30
2022-10-19T09:00:18.496Z,12.40
2022-10-19T09:03:03.562Z,12.40
2022-10-19T09:05:38.843Z,12.50
2022-10-19T09:08:10.608Z,12.50
2022-10-19T09:10:41.862Z,12.50
2022-10-19T09:13:17.198Z,12.50
2022-10-19T09:15:47.027Z,12.60
2022-10-19T09:18:20.200Z,12.60
2022-10-19T09:20:50.733Z,12.60
2022-10-19T09:23:23.162Z,12.70
2022-10-19T09:25:52.293Z,12.70
2022-10-19T09:28:39.686Z,12.70
2022-10-19T09:31:11.969Z,12.80
2022-10-19T09:33:41.880Z,12.90
2022-10-19T09:36:22.210Z,12.90
2022-10-19T09:38:55.654Z,12.90
2022-10-19T09:41:24.573Z,13.00
2022-10-19T09:43:55.677Z,13.10
2022-10-19T09:46:38.935Z,13.10
2022-10-19T09:49:07.605Z,13.10
2022-10-19T09:51:50.348Z,13.20
2022-10-19T09:54:33.780Z,13.20
2022-10-19T09:57:02.366Z,13.20
2022-10-19T09:59:35.550Z,13.20
2022-10-19T10:02:17.816Z,13.30
2022-10-19T10:04:55.669Z,13.30
2022-10-19T10:07:30.453Z,13.40
2022-10-19T10:09:59.460Z,13.40
2022-10-19T10:12:28.074Z,13.40
2022-10-19T10:14:57.466Z,13.40
2022-10-19T10:17:31.499Z,13.40
2022-10-19T10:20:19.622Z,13.40
2022-10-19T10:22:56.905Z,13.30
2022-10-19T10:25:28.483Z,13.30
2022-10-19T10:27:59.506Z,13.30
2022-10-19T10:30:33.574Z,13.30
2022-10-19T10:33:09.381Z,13.30
2022-10-19T10:35:53.764Z,13.30
2022-10-19T10:38:25.914Z,13.30
2022-10-19T10:40:57.138Z,13.30
2022-10-19T10:43:31.837Z,13.30
2022-10-19T10:46:07.457Z,13.30
2022-10-19T10:48:39.696Z,13.30
2022-10-19T10:51:20.795Z,13.30
2022-10-19T10:53:49.125Z,13.40
2022-10-19T10:56:26.499Z,13.40
2022-10-19T10:58:59.621Z,13.40
2022-10-19T11:01:33.880Z,13.40
2022-10-19T11:04:05.976Z,13.40
2022-10-19T11:06:42.263Z,13.40
2022-10-19T11:09:20.791Z,13.40
2022-10-19T11:11:50.720Z,13.40
2022-10-19T11:14:31.438Z,13.50
2022-10-19T11:17:06.460Z,13.40
2022-10-19T11:19:37.588Z,13.50
2022-10-19T11:22:15.902Z,13.50
2022-10-19T11:24:55.446Z,13.50
2022-10-19T11:27:33.404Z,13.50
2022-10-19T11:30:10.777Z,13.50
2022-10-19T11:32:55.853Z,13.50
2022-10-19T11:35:37.630Z,13.50
2022-10-19T11:38:27.395Z,13.50
2022-10-19T11:41:23.373Z,13.60
2022-10-19T11:44:14.414Z,13.60
2022-10-19T11:46:50.483Z,13.60
2022-10-19T11:49:33.971Z,13.70
2022-10-19T11:52:06.885Z,13.70
2022-10-19T11:54:45.933Z,13.70
2022-10-19T11:57:17.272Z,13.70
2022-10-19T12:00:13.625Z,13.70
2022-10-19T12:03:07.761Z,13.70
2022-10-19T12:05:43.513Z,13.70
2022-10-19T12:08:25.431Z,13.70
2022-10-19T12:10:58.561Z,13.80
2022-10-19T12:13:40.934Z,13.90
2022-10-19T12:16:11.498Z,13.90
2022-10-19T12:18:43.734Z,14.00
2022-10-19T12:21:18.037Z,14.00
2022-10-19T12:23:48.040Z,14.00
2022-10-19T12:28:51.592Z,14.10
2022-10-19T12:31:20.152Z,14.20
2022-10-19T12:33:52.150Z,14.20
2022-10-19T12:36:35.983Z,14.20
2022-10-19T12:39:12.412Z,14.20
2022-10-19T12:41:45.939Z,14.20
2022-10-19T12:44:29.801Z,14.30
2022-10-19T12:47:08.501Z,14.30
2022-10-19T12:49:48.790Z,14.40
2022-10-19T12:52:34.077Z,14.40
2022-10-19T12:55:13.776Z,14.40
2022-10-19T12:57:43.633Z,14.50
2022-10-19T13:00:22.899Z,14.50
2022-10-19T13:02:59.149Z,14.50
2022-10-19T13:05:29.725Z,14.50
2022-10-19T13:08:01.317Z,14.60
2022-10-19T13:10:30.466Z,14.50
2022-10-19T13:12:58.461Z,14.50
2022-10-19T13:15:53.739Z,14.50
2022-10-19T13:19:07.528Z,14.50
2022-10-19T13:21:46.544Z,14.60
2022-10-19T13:24:28.464Z,14.60
2022-10-19T13:27:36.780Z,14.60
2022-10-19T13:30:06.356Z,14.70
2022-10-19T13:32:41.422Z,14.70
2022-10-19T13:35:31.699Z,14.70
2022-10-19T13:38:27.259Z,14.70
2022-10-19T13:41:04.062Z,14.70
2022-10-19T13:43:34.766Z,14.70
2022-10-19T13:46:10.436Z,14.80
2022-10-19T13:49:15.185Z,14.70
2022-10-19T13:52:04.698Z,14.70
2022-10-19T13:55:00.984Z,14.80
2022-10-19T13:57:53.109Z,14.70
2022-10-19T14:00:23.618Z,14.70
2022-10-19T14:03:06.763Z,14.80
2022-10-19T14:06:00.593Z,14.80
2022-10-19T14:08:44.411Z,14.80
2022-10-19T14:11:16.862Z,14.80
2022-10-19T14:13:46.829Z,14.90
2022-10-19T14:16:21.463Z,14.90
2022-10-19T14:18:55.717Z,14.90
2022-10-19T14:21:36.884Z,14.90
2022-10-19T14:24:21.067Z,14.90
2022-10-19T14:26:49.178Z,14.80
2022-10-19T14:29:18.534Z,14.80
2022-10-19T14:31:46.691Z,14.80
2022-10-19T14:34:14.960Z,14.80
2022-10-19T14:36:46.252Z,14.80
2022-10-19T14:39:25.072Z,14.80
2022-10-19T14:41:56.069Z,14.90
2022-10-19T14:44:40.203Z,14.90
2022-10-19T14:47:21.333Z,14.90
2022-10-19T14:49:49.739Z,15.00
2022-10-19T14:52:23.197Z,14.90
2022-10-19T14:54:55.012Z,14.90
2022-10-19T14:57:29.981Z,14.90
2022-10-19T15:00:01.311Z,14.90
2022-10-19T15:02:33.266Z,14.90
2022-10-19T15:05:03.913Z,14.80
2022-10-19T15:07:37.236Z,14.80
2022-10-19T15:10:09.141Z,14.70
2022-10-19T15:12:39.680Z,14.70
2022-10-19T15:15:18.106Z,14.60
2022-10-19T15:17:54.252Z,14.60
2022-10-19T15:20:26.398Z,14.60
2022-10-19T15:22:54.603Z,14.60
2022-10-19T15:25:40.199Z,14.50
2022-10-19T15:28:34.913Z,14.50
2022-10-19T15:31:14.020Z,14.30
2022-10-19T15:33:46.143Z,14.20
2022-10-19T15:36:17.359Z,14.10
2022-10-19T15:38:47.224Z,14.00
2022-10-19T15:41:26.577Z,13.90
2022-10-19T15:43:56.728Z,13.80
2022-10-19T15:46:31.012Z,13.80
2022-10-19T15:49:01.289Z,13.70
2022-10-19T15:51:44.585Z,13.60
2022-10-19T15:54:15.818Z,13.60
2022-10-19T15:56:45.351Z,13.50
2022-10-19T15:59:16.129Z,13.50
2022-10-19T16:01:51.141Z,13.40
2022-10-19T16:04:23.206Z,13.30
2022-10-19T16:06:51.217Z,13.20
2022-10-19T16:09:21.439Z,13.20
2022-10-19T16:11:56.185Z,13.10
2022-10-19T16:14:24.205Z,13.00
2022-10-19T16:16:53.708Z,13.00
2022-10-19T16:19:21.694Z,12.90
2022-10-19T16:21:50.465Z,12.90
2022-10-19T16:24:18.576Z,12.80
2022-10-19T16:26:46.552Z,12.70
2022-10-19T16:29:14.528Z,12.70
2022-10-19T16:31:42.485Z,12.70
2022-10-19T16:34:11.838Z,12.60
2022-10-19T16:36:39.884Z,12.50
2022-10-19T16:39:08.015Z,12.50
2022-10-19T16:41:36.019Z,12.40
2022-10-19T16:44:03.999Z,12.30
2022-10-19T16:46:32.078Z,12.30
2022-10-19T16:49:00.037Z,12.20
2022-10-19T16:51:35.106Z,12.20
2022-10-19T16:54:03.906Z,12.10
2022-10-19T16:56:33.309Z,12.10
2022-10-19T16:59:02.847Z,12.00
2022-10-19T17:01:32.255Z,12.00
2022-10-19T17:04:00.403Z,11.90
2022-10-19T17:06:30.174Z,11.80
2022-10-19T17:09:40.378Z,11.80
2022-10-19T17:11:47.256Z,11.70
2022-10-19T17:14:15.359Z,11.70
2022-10-19T17:16:43.480Z,11.60
2022-10-19T17:19:12.285Z,11.50
2022-10-19T17:21:42.441Z,11.50
2022-10-19T17:24:21.018Z,11.40
2022-10-19T17:26:50.849Z,11.40
2022-10-19T17:29:19.331Z,11.40
2022-10-19T17:31:47.491Z,11.30
2022-10-19T17:34:15.854Z,11.20
2022-10-19T17:36:46.515Z,11.20
2022-10-19T17:39:17.847Z,11.20
2022-10-19T17:41:46.264Z,11.10
2022-10-19T17:44:14.790Z,11.10
2022-10-19T17:46:43.038Z,11.00
2022-10-19T17:49:11.475Z,11.00
2022-10-19T17:51:39.737Z,11.00
2022-10-19T17:54:12.483Z,11.00
2022-10-19T17:56:41.405Z,10.90
2022-10-19T17:59:09.559Z,10.90
2022-10-19T18:01:38.159Z,10.80
2022-10-19T18:04:06.553Z,10.80
2022-10-19T18:06:37.163Z,10.80
2022-10-19T18:09:08.910Z,10.80
2022-10-19T18:11:38.780Z,10.70
2022-10-19T18:14:09.367Z,10.70
2022-10-19T18:16:40.551Z,10.70
2022-10-19T18:19:09.508Z,10.60
2022-10-19T18:21:39.769Z,10.60
2022-10-19T18:24:14.385Z,10.60
2022-10-19T18:26:44.243Z,10.60
2022-10-19T18:29:14.090Z,10.50
2022-10-19T18:31:42.512Z,10.50
2022-10-19T18:34:15.097Z,10.50
2022-10-19T18:36:43.638Z,10.40
2022-10-19T18:39:15.029Z,10.40
2022-10-19T18:41:43.283Z,10.40
2022-10-19T18:44:15.757Z,10.40
2022-10-19T18:46:44.497Z,10.40
2022-10-19T18:49:12.913Z,10.40
2022-10-19T18:51:41.300Z,10.30
2022-10-19T18:54:09.860Z,10.30
2022-10-19T18:56:39.220Z,10.30
2022-10-19T18:59:07.334Z,10.20
2022-10-19T19:01:35.393Z,10.20
2022-10-19T19:04:08.720Z,10.10
2022-10-19T19:06:37.866Z,10.00
2022-10-19T19:09:08.039Z,9.90
2022-10-19T19:11:38.345Z,9.90
2022-10-19T19:14:11.497Z,9.80
2022-10-19T19:16:41.117Z,9.80
2022-10-19T19:19:09.599Z,9.80
2022-10-19T19:21:38.281Z,9.70
2022-10-19T19:24:08.537Z,9.70
2022-10-19T19:26:40.363Z,9.70
2022-10-19T19:29:10.022Z,9.60
2022-10-19T19:31:39.298Z,9.60
2022-10-19T19:34:09.304Z,9.50
2022-10-19T19:36:38.149Z,9.50
2022-10-19T19:39:06.576Z,9.40
2022-10-19T19:41:34.937Z,9.40
2022-10-19T19:44:04.558Z,9.40
2022-10-19T19:46:33.985Z,9.40
2022-10-19T19:49:03.666Z,9.30
2022-10-19T19:51:33.492Z,9.30
2022-10-19T19:54:01.541Z,9.30
2022-10-19T19:56:29.923Z,9.30
2022-10-19T19:59:00.271Z,9.20
2022-10-19T20:01:28.275Z,9.20
2022-10-19T20:04:00.183Z,9.10
2022-10-19T20:06:28.311Z,9.10
2022-10-19T20:08:57.420Z,9.10
2022-10-19T20:11:27.312Z,9.00
2022-10-19T20:13:55.520Z,9.00
2022-10-19T20:16:28.341Z,8.90
2022-10-19T20:19:02.751Z,8.90
2022-10-19T20:21:31.817Z,8.90
2022-10-19T20:24:00.272Z,8.80
2022-10-19T20:26:29.006Z,8.80
2022-10-19T20:28:57.825Z,8.80
2022-10-19T20:31:26.180Z,8.70
2022-10-19T20:33:54.172Z,8.80
2022-10-19T20:36:25.942Z,8.70
2022-10-19T20:38:55.525Z,8.70
2022-10-19T20:41:26.273Z,8.70
2022-10-19T20:43:55.297Z,8.70
2022-10-19T20:46:24.726Z,8.70
2022-10-19T20:48:53.052Z,8.70
2022-10-19T20:51:27.613Z,8.70
2022-10-19T20:54:00.895Z,8.70
2022-10-19T20:56:30.751Z,8.70
2022-10-19T20:59:00.557Z,8.70
2022-10-19T21:01:30.377Z,8.70
2022-10-19T21:04:00.520Z,8.70
2022-10-19T21:06:31.796Z,8.70
2022-10-19T21:09:00.767Z,8.70
2022-10-19T21:11:30.889Z,8.60
2022-10-19T21:14:00.944Z,8.60
2022-10-19T21:16:33.552Z,8.60
2022-10-19T21:19:02.469Z,8.60
2022-10-19T21:21:34.223Z,8.60
2022-10-19T21:24:05.016Z,8.60
2022-10-19T21:26:35.347Z,8.60
2022-10-19T21:29:04.025Z,8.60
2022-10-19T21:31:32.312Z,8.60
2022-10-19T21:34:00.247Z,8.60
2022-10-19T21:36:28.240Z,8.60
2022-10-19T21:38:57.581Z,8.60
2022-10-19T21:41:26.529Z,8.60
2022-10-19T21:43:54.880Z,8.60
2022-10-19T21:46:24.204Z,8.60
2022-10-19T21:48:52.939Z,8.60
2022-10-19T21:51:27.319Z,8.60
2022-10-19T21:53:56.753Z,8.50
2022-10-19T21:56:24.831Z,8.50
2022-10-19T21:58:54.240Z,8.50
2022-10-19T22:01:24.267Z,8.40
2022-10-19T22:03:57.026Z,8.40
2022-10-19T22:06:25.087Z,8.40
2022-10-19T22:08:53.644Z,8.30
2022-10-19T22:11:24.247Z,8.30
2022-10-19T22:13:55.712Z,8.30
2022-10-19T22:16:25.202Z,8.30
2022-10-19T22:18:54.294Z,8.20
2022-10-19T22:21:23.813Z,8.20
2022-10-19T22:23:53.543Z,8.20
2022-10-19T22:26:25.612Z,8.20
2022-10-19T22:28:54.012Z,8.20
2022-10-19T22:31:22.024Z,8.20
2022-10-19T22:33:50.331Z,8.20
2022-10-19T22:36:19.949Z,8.20
2022-10-19T22:38:47.991Z,8.10
2022-10-19T22:41:15.931Z,8.10
2022-10-19T22:43:45.268Z,8.10
2022-10-19T22:46:13.226Z,8.10
2022-10-19T22:48:41.191Z,8.10
2022-10-19T22:51:09.134Z,8.10
2022-10-19T22:53:37.145Z,8.00
2022-10-19T22:56:05.600Z,8.00
2022-10-19T22:58:33.613Z,8.00
2022-10-19T23:01:05.162Z,8.00
2022-10-19T23:03:33.210Z,8.00
2022-10-19T23:06:01.199Z,8.00
2022-10-19T23:08:29.295Z,8.00
2022-10-19T23:10:57.496Z,8.00
2022-10-19T23:13:25.718Z,7.90
2022-10-19T23:15:53.688Z,7.90
2022-10-19T23:18:23.099Z,8.00
2022-10-19T23:20:55.089Z,7.90
2022-10-19T23:23:23.248Z,7.90
2022-10-19T23:26:02.943Z,7.90
2022-10-19T23:28:31.908Z,7.90
2022-10-19T23:31:04.581Z,7.90
2022-10-19T23:33:34.610Z,7.80
2022-10-19T23:36:04.156Z,7.80
2022-10-19T23:38:32.274Z,7.70
2022-10-19T23:41:00.360Z,7.70
2022-10-19T23:43:28.711Z,7.70
2022-10-19T23:45:56.769Z,7.70
2022-10-19T23:48:24.764Z,7.70
2022-10-19T23:51:03.204Z,7.70
2022-10-19T23:53:34.705Z,7.70
2022-10-19T23:56:08.589Z,7.70
2022-10-19T23:58:36.800Z,7.70
